sensor_id;sensor_type;location;lat;lon;timestamp;temperature;humidity
18426;DHT22;9340;48.756;9.226;2022-10-23T00:02:09;10.30;99.90
18426;DHT22;9340;48.756;9.226;2022-10-23T00:04:37;10.30;99.90
18426;DHT22;9340;48.756;9.226;2022-10-23T00:07:04;10.30;99.90
18426;DHT22;9340;48.756;9.226;2022-10-23T00:09:31;10.30;99.90
18426;DHT22;9340;48.756;9.226;2022-10-23T00:11:57;10.20;99.90
18426;DHT22;9340;48.756;9.226;2022-10-23T00:14:24;10.10;99.90
18426;DHT22;9340;48.756;9.226;2022-10-23T00:16:51;10.10;99.90
18426;DHT22;9340;48.756;9.226;2022-10-23T00:19:17;10.10;99.90
18426;DHT22;9340;48.756;9.226;2022-10-23T00:21:46;10.00;99.90
18426;DHT22;9340;48.756;9.226;2022-10-23T00:24:12;10.10;99.90
18426;DHT22;9340;48.756;9.226;2022-10-23T00:26:39;10.10;99.90
18426;DHT22;9340;48.756;9.226;2022-10-23T00:29:06;10.10;99.90
18426;DHT22;9340;48.756;9.226;2022-10-23T00:31:33;10.20;99.90
18426;DHT22;9340;48.756;9.226;2022-10-23T00:34:00;10.20;99.90
18426;DHT22;9340;48.756;9.226;2022-10-23T00:36:28;10.20;99.90
18426;DHT22;9340;48.756;9.226;2022-10-23T00:38:56;10.20;99.90
18426;DHT22;9340;48.756;9.226;2022-10-23T00:41:25;10.20;99.90
18426;DHT22;9340;48.756;9.226;2022-10-23T00:43:58;10.20;99.90
18426;DHT22;9340;48.756;9.226;2022-10-23T00:46:25;10.20;99.90
18426;DHT22;9340;48.756;9.226;2022-10-23T00:48:52;10.20;99.90
18426;DHT22;9340;48.756;9.226;2022-10-23T00:51:19;10.20;99.90
18426;DHT22;9340;48.756;9.226;2022-10-23T00:53:48;10.10;99.90
18426;DHT22;9340;48.756;9.226;2022-10-23T00:56:17;10.00;99.90
18426;DHT22;9340;48.756;9.226;2022-10-23T00:58:44;10.00;99.90
18426;DHT22;9340;48.756;9.226;2022-10-23T01:01:15;10.00;99.90
18426;DHT22;9340;48.756;9.226;2022-10-23T01:03:42;9.90;99.90
18426;DHT22;9340;48.756;9.226;2022-10-23T01:06:14;9.90;99.90
18426;DHT22;9340;48.756;9.226;2022-10-23T01:08:46;9.90;99.90
18426;DHT22;9340;48.756;9.226;2022-10-23T01:11:19;9.90;99.90
18426;DHT22;9340;48.756;9.226;2022-10-23T01:13:53;9.90;99.90
18426;DHT22;9340;48.756;9.226;2022-10-23T01:16:30;9.90;99.90
18426;DHT22;9340;48.756;9.226;2022-10-23T01:19:05;9.90;99.90
18426;DHT22;9340;48.756;9.226;2022-10-23T01:21:41;9.90;99.90
18426;DHT22;9340;48.756;9.226;2022-10-23T01:24:19;9.90;99.90
18426;DHT22;9340;48.756;9.226;2022-10-23T01:26:59;9.90;99.90
18426;DHT22;9340;48.756;9.226;2022-10-23T01:29:35;9.80;99.90
18426;DHT22;9340;48.756;9.226;2022-10-23T01:32:07;9.70;99.90
18426;DHT22;9340;48.756;9.226;2022-10-23T01:34:40;9.60;99.90
18426;DHT22;9340;48.756;9.226;2022-10-23T01:37:11;9.60;99.90
18426;DHT22;9340;48.756;9.226;2022-10-23T01:39:44;9.60;99.90
18426;DHT22;9340;48.756;9.226;2022-10-23T01:42:15;9.60;99.90
18426;DHT22;9340;48.756;9.226;2022-10-23T01:45:07;9.70;99.90
18426;DHT22;9340;48.756;9.226;2022-10-23T01:47:35;9.70;99.90
18426;DHT22;9340;48.756;9.226;2022-10-23T01:50:03;9.80;99.90
18426;DHT22;9340;48.756;9.226;2022-10-23T01:52:31;9.80;99.90
18426;DHT22;9340;48.756;9.226;2022-10-23T01:54:59;9.70;99.90
18426;DHT22;9340;48.756;9.226;2022-10-23T01:57:29;9.70;99.90
18426;DHT22;9340;48.756;9.226;2022-10-23T02:00:01;9.70;99.90
18426;DHT22;9340;48.756;9.226;2022-10-23T02:02:31;9.70;99.90
18426;DHT22;9340;48.756;9.226;2022-10-23T02:05:02;9.70;99.90
18426;DHT22;9340;48.756;9.226;2022-10-23T02:07:32;9.60;99.90
18426;DHT22;9340;48.756;9.226;2022-10-23T02:09:59;9.60;99.90
18426;DHT22;9340;48.756;9.226;2022-10-23T02:12:34;9.60;99.90
18426;DHT22;9340;48.756;9.226;2022-10-23T02:15:10;9.60;99.90
18426;DHT22;9340;48.756;9.226;2022-10-23T02:17:45;9.60;99.90
18426;DHT22;9340;48.756;9.226;2022-10-23T02:20:18;9.60;99.90
18426;DHT22;9340;48.756;9.226;2022-10-23T02:22:53;9.60;99.90
18426;DHT22;9340;48.756;9.226;2022-10-23T02:25:31;9.60;99.90
18426;DHT22;9340;48.756;9.226;2022-10-23T02:28:02;9.50;99.90
18426;DHT22;9340;48.756;9.226;2022-10-23T02:30:31;9.50;99.90
18426;DHT22;9340;48.756;9.226;2022-10-23T02:33:02;9.50;99.90
18426;DHT22;9340;48.756;9.226;2022-10-23T02:35:30;9.50;99.90
18426;DHT22;9340;48.756;9.226;2022-10-23T02:37:59;9.50;99.90
18426;DHT22;9340;48.756;9.226;2022-10-23T02:40:29;9.50;99.90
18426;DHT22;9340;48.756;9.226;2022-10-23T02:43:01;9.50;99.90
18426;DHT22;9340;48.756;9.226;2022-10-23T02:45:32;9.60;99.90
18426;DHT22;9340;48.756;9.226;2022-10-23T02:48:04;9.60;99.90
18426;DHT22;9340;48.756;9.226;2022-10-23T02:50:36;9.70;99.90
18426;DHT22;9340;48.756;9.226;2022-10-23T02:53:09;9.70;99.90
18426;DHT22;9340;48.756;9.226;2022-10-23T02:55:50;9.70;99.90
18426;DHT22;9340;48.756;9.226;2022-10-23T02:58:23;9.70;99.90
18426;DHT22;9340;48.756;9.226;2022-10-23T03:00:56;9.70;99.90
18426;DHT22;9340;48.756;9.226;2022-10-23T03:03:27;9.70;99.90
18426;DHT22;9340;48.756;9.226;2022-10-23T03:05:55;9.80;99.90
18426;DHT22;9340;48.756;9.226;2022-10-23T03:08:22;9.70;99.90
18426;DHT22;9340;48.756;9.226;2022-10-23T03:10:49;9.70;99.90
18426;DHT22;9340;48.756;9.226;2022-10-23T03:13:16;9.80;99.90
18426;DHT22;9340;48.756;9.226;2022-10-23T03:15:43;9.80;99.90
18426;DHT22;9340;48.756;9.226;2022-10-23T03:18:10;9.70;99.90
18426;DHT22;9340;48.756;9.226;2022-10-23T03:20:38;9.80;99.90
18426;DHT22;9340;48.756;9.226;2022-10-23T03:23:05;9.70;99.90
18426;DHT22;9340;48.756;9.226;2022-10-23T03:25:31;9.70;99.90
18426;DHT22;9340;48.756;9.226;2022-10-23T03:27:58;9.70;99.90
18426;DHT22;9340;48.756;9.226;2022-10-23T03:30:25;9.70;99.90
18426;DHT22;9340;48.756;9.226;2022-10-23T03:32:52;9.70;99.90
18426;DHT22;9340;48.756;9.226;2022-10-23T03:35:18;9.60;99.90
18426;DHT22;9340;48.756;9.226;2022-10-23T03:37:46;9.60;99.90
18426;DHT22;9340;48.756;9.226;2022-10-23T03:40:13;9.50;99.90
18426;DHT22;9340;48.756;9.226;2022-10-23T03:42:40;9.50;99.90
18426;DHT22;9340;48.756;9.226;2022-10-23T03:45:07;9.50;99.90
18426;DHT22;9340;48.756;9.226;2022-10-23T03:47:34;9.70;99.90
18426;DHT22;9340;48.756;9.226;2022-10-23T03:50:06;9.80;99.90
18426;DHT22;9340;48.756;9.226;2022-10-23T03:52:32;9.80;99.90
18426;DHT22;9340;48.756;9.226;2022-10-23T03:55:01;9.90;99.90
18426;DHT22;9340;48.756;9.226;2022-10-23T03:57:27;10.00;99.90
18426;DHT22;9340;48.756;9.226;2022-10-23T03:59:54;10.00;99.90
18426;DHT22;9340;48.756;9.226;2022-10-23T04:02:21;10.00;99.90
18426;DHT22;9340;48.756;9.226;2022-10-23T04:04:47;10.00;99.90
18426;DHT22;9340;48.756;9.226;2022-10-23T04:07:14;10.10;99.90
18426;DHT22;9340;48.756;9.226;2022-10-23T04:09:41;10.00;99.90
18426;DHT22;9340;48.756;9.226;2022-10-23T04:12:09;10.10;99.90
18426;DHT22;9340;48.756;9.226;2022-10-23T04:14:36;10.10;99.90
18426;DHT22;9340;48.756;9.226;2022-10-23T04:17:02;10.10;99.90
18426;DHT22;9340;48.756;9.226;2022-10-23T04:19:29;10.00;99.90
18426;DHT22;9340;48.756;9.226;2022-10-23T04:21:56;10.00;99.90
18426;DHT22;9340;48.756;9.226;2022-10-23T04:24:23;9.90;99.90
18426;DHT22;9340;48.756;9.226;2022-10-23T04:26:50;9.90;99.90
18426;DHT22;9340;48.756;9.226;2022-10-23T04:29:18;9.90;99.90
18426;DHT22;9340;48.756;9.226;2022-10-23T04:31:46;9.90;99.90
18426;DHT22;9340;48.756;9.226;2022-10-23T04:34:13;10.00;99.90
18426;DHT22;9340;48.756;9.226;2022-10-23T04:36:40;10.00;99.90
18426;DHT22;9340;48.756;9.226;2022-10-23T04:39:07;10.00;99.90
18426;DHT22;9340;48.756;9.226;2022-10-23T04:41:34;10.00;99.90
18426;DHT22;9340;48.756;9.226;2022-10-23T04:44:03;10.10;99.90
18426;DHT22;9340;48.756;9.226;2022-10-23T04:46:31;10.10;99.90
18426;DHT22;9340;48.756;9.226;2022-10-23T04:48:57;10.10;99.90
18426;DHT22;9340;48.756;9.226;2022-10-23T04:51:24;10.10;99.90
18426;DHT22;9340;48.756;9.226;2022-10-23T04:53:51;10.10;99.90
18426;DHT22;9340;48.756;9.226;2022-10-23T04:56:17;10.10;99.90
18426;DHT22;9340;48.756;9.226;2022-10-23T04:58:44;10.20;99.90
18426;DHT22;9340;48.756;9.226;2022-10-23T05:01:11;10.20;99.90
18426;DHT22;9340;48.756;9.226;2022-10-23T05:03:39;10.30;99.90
18426;DHT22;9340;48.756;9.226;2022-10-23T05:06:06;10.40;99.90
18426;DHT22;9340;48.756;9.226;2022-10-23T05:08:33;10.40;99.90
18426;DHT22;9340;48.756;9.226;2022-10-23T05:11:00;10.40;99.90
18426;DHT22;9340;48.756;9.226;2022-10-23T05:13:27;10.50;99.90
18426;DHT22;9340;48.756;9.226;2022-10-23T05:15:53;10.50;99.90
18426;DHT22;9340;48.756;9.226;2022-10-23T05:18:23;10.50;99.90
18426;DHT22;9340;48.756;9.226;2022-10-23T05:20:55;10.50;99.90
18426;DHT22;9340;48.756;9.226;2022-10-23T05:23:23;10.40;99.90
18426;DHT22;9340;48.756;9.226;2022-10-23T05:25:50;10.40;99.90
18426;DHT22;9340;48.756;9.226;2022-10-23T05:28:17;10.40;99.90
18426;DHT22;9340;48.756;9.226;2022-10-23T05:30:44;10.40;99.90
18426;DHT22;9340;48.756;9.226;2022-10-23T05:33:11;10.40;99.90
18426;DHT22;9340;48.756;9.226;2022-10-23T05:35:38;10.40;99.90
18426;DHT22;9340;48.756;9.226;2022-10-23T05:38:07;10.40;99.90
18426;DHT22;9340;48.756;9.226;2022-10-23T05:40:34;10.40;99.90
18426;DHT22;9340;48.756;9.226;2022-10-23T05:43:01;10.50;99.90
18426;DHT22;9340;48.756;9.226;2022-10-23T05:45:27;10.40;99.90
18426;DHT22;9340;48.756;9.226;2022-10-23T05:47:54;10.30;99.90
18426;DHT22;9340;48.756;9.226;2022-10-23T05:50:21;10.20;99.90
18426;DHT22;9340;48.756;9.226;2022-10-23T05:52:48;10.10;99.90
18426;DHT22;9340;48.756;9.226;2022-10-23T05:55:16;10.20;99.90
18426;DHT22;9340;48.756;9.226;2022-10-23T05:57:43;10.20;99.90
18426;DHT22;9340;48.756;9.226;2022-10-23T06:00:11;10.10;99.90
18426;DHT22;9340;48.756;9.226;2022-10-23T06:02:38;10.10;99.90
18426;DHT22;9340;48.756;9.226;2022-10-23T06:05:05;10.00;99.90
18426;DHT22;9340;48.756;9.226;2022-10-23T06:07:31;10.00;99.90
18426;DHT22;9340;48.756;9.226;2022-10-23T06:09:58;10.00;99.90
18426;DHT22;9340;48.756;9.226;2022-10-23T06:12:27;10.10;99.90
18426;DHT22;9340;48.756;9.226;2022-10-23T06:14:53;10.10;99.90
18426;DHT22;9340;48.756;9.226;2022-10-23T06:17:20;10.10;99.90
18426;DHT22;9340;48.756;9.226;2022-10-23T06:19:47;10.30;99.90
18426;DHT22;9340;48.756;9.226;2022-10-23T06:22:13;10.30;99.90
18426;DHT22;9340;48.756;9.226;2022-10-23T06:24:40;10.40;99.90
18426;DHT22;9340;48.756;9.226;2022-10-23T06:27:07;10.40;99.90
18426;DHT22;9340;48.756;9.226;2022-10-23T06:29:35;10.40;99.90
18426;DHT22;9340;48.756;9.226;2022-10-23T06:32:02;10.40;99.90
18426;DHT22;9340;48.756;9.226;2022-10-23T06:34:28;10.40;99.90
18426;DHT22;9340;48.756;9.226;2022-10-23T06:36:55;10.50;99.90
18426;DHT22;9340;48.756;9.226;2022-10-23T06:39:22;10.60;99.90
18426;DHT22;9340;48.756;9.226;2022-10-23T06:41:48;10.60;99.90
18426;DHT22;9340;48.756;9.226;2022-10-23T06:44:15;10.70;99.90
18426;DHT22;9340;48.756;9.226;2022-10-23T06:46:43;10.60;99.90
18426;DHT22;9340;48.756;9.226;2022-10-23T06:49:12;10.70;99.90
18426;DHT22;9340;48.756;9.226;2022-10-23T06:51:40;10.70;99.90
18426;DHT22;9340;48.756;9.226;2022-10-23T06:54:06;10.80;99.90
18426;DHT22;9340;48.756;9.226;2022-10-23T06:56:33;10.90;99.90
18426;DHT22;9340;48.756;9.226;2022-10-23T06:59:00;11.00;99.90
18426;DHT22;9340;48.756;9.226;2022-10-23T07:01:26;11.10;99.90
18426;DHT22;9340;48.756;9.226;2022-10-23T07:03:54;11.20;99.90
18426;DHT22;9340;48.756;9.226;2022-10-23T07:06:21;11.30;99.90
18426;DHT22;9340;48.756;9.226;2022-10-23T07:08:48;11.40;99.90
18426;DHT22;9340;48.756;9.226;2022-10-23T07:11:15;11.40;99.90
18426;DHT22;9340;48.756;9.226;2022-10-23T07:13:41;11.50;99.90
18426;DHT22;9340;48.756;9.226;2022-10-23T07:16:10;11.50;99.90
18426;DHT22;9340;48.756;9.226;2022-10-23T07:18:37;11.50;99.90
18426;DHT22;9340;48.756;9.226;2022-10-23T07:21:05;11.60;99.90
18426;DHT22;9340;48.756;9.226;2022-10-23T07:23:32;11.50;99.90
18426;DHT22;9340;48.756;9.226;2022-10-23T07:26:03;11.60;99.90
18426;DHT22;9340;48.756;9.226;2022-10-23T07:28:30;11.70;99.90
18426;DHT22;9340;48.756;9.226;2022-10-23T07:30:57;11.80;99.90
18426;DHT22;9340;48.756;9.226;2022-10-23T07:33:24;11.90;99.90
18426;DHT22;9340;48.756;9.226;2022-10-23T07:35:50;11.90;99.90
18426;DHT22;9340;48.756;9.226;2022-10-23T07:38:18;12.00;99.90
18426;DHT22;9340;48.756;9.226;2022-10-23T07:40:45;12.00;99.90
18426;DHT22;9340;48.756;9.226;2022-10-23T07:43:12;12.20;99.90
18426;DHT22;9340;48.756;9.226;2022-10-23T07:45:39;12.20;99.90
18426;DHT22;9340;48.756;9.226;2022-10-23T07:48:06;12.20;99.90
18426;DHT22;9340;48.756;9.226;2022-10-23T07:50:33;12.30;99.90
18426;DHT22;9340;48.756;9.226;2022-10-23T07:53:02;12.30;99.90
18426;DHT22;9340;48.756;9.226;2022-10-23T07:55:30;12.50;99.90
18426;DHT22;9340;48.756;9.226;2022-10-23T07:57:57;12.50;99.90
18426;DHT22;9340;48.756;9.226;2022-10-23T08:00:23;12.60;99.90
18426;DHT22;9340;48.756;9.226;2022-10-23T08:02:50;12.70;99.90
18426;DHT22;9340;48.756;9.226;2022-10-23T08:05:18;12.80;99.90
18426;DHT22;9340;48.756;9.226;2022-10-23T08:07:45;12.80;99.90
18426;DHT22;9340;48.756;9.226;2022-10-23T08:10:11;12.90;99.90
18426;DHT22;9340;48.756;9.226;2022-10-23T08:12:39;12.90;99.90
18426;DHT22;9340;48.756;9.226;2022-10-23T08:15:07;13.00;99.90
18426;DHT22;9340;48.756;9.226;2022-10-23T08:17:34;13.00;99.90
18426;DHT22;9340;48.756;9.226;2022-10-23T08:20:01;13.10;99.90
18426;DHT22;9340;48.756;9.226;2022-10-23T08:22:27;13.20;99.90
18426;DHT22;9340;48.756;9.226;2022-10-23T08:24:54;13.20;99.90
18426;DHT22;9340;48.756;9.226;2022-10-23T08:27:21;13.40;99.90
18426;DHT22;9340;48.756;9.226;2022-10-23T08:29:49;13.50;99.90
18426;DHT22;9340;48.756;9.226;2022-10-23T08:32:15;13.60;99.90
18426;DHT22;9340;48.756;9.226;2022-10-23T08:34:42;13.70;99.90
18426;DHT22;9340;48.756;9.226;2022-10-23T08:37:09;13.80;99.90
18426;DHT22;9340;48.756;9.226;2022-10-23T08:39:35;13.90;99.90
18426;DHT22;9340;48.756;9.226;2022-10-23T08:42:02;14.00;99.90
18426;DHT22;9340;48.756;9.226;2022-10-23T08:44:32;14.30;99.90
18426;DHT22;9340;48.756;9.226;2022-10-23T08:47:05;14.50;99.90
18426;DHT22;9340;48.756;9.226;2022-10-23T08:49:41;14.40;99.90
18426;DHT22;9340;48.756;9.226;2022-10-23T08:52:14;14.30;99.90
18426;DHT22;9340;48.756;9.226;2022-10-23T08:54:59;14.40;99.90
18426;DHT22;9340;48.756;9.226;2022-10-23T08:57:31;14.50;99.90
18426;DHT22;9340;48.756;9.226;2022-10-23T09:00:02;14.60;99.90
18426;DHT22;9340;48.756;9.226;2022-10-23T09:02:36;14.50;99.90
18426;DHT22;9340;48.756;9.226;2022-10-23T09:05:14;14.50;99.90
18426;DHT22;9340;48.756;9.226;2022-10-23T09:07:55;14.60;99.90
18426;DHT22;9340;48.756;9.226;2022-10-23T09:10:36;14.70;99.90
18426;DHT22;9340;48.756;9.226;2022-10-23T09:13:28;14.80;99.90
18426;DHT22;9340;48.756;9.226;2022-10-23T09:16:05;15.00;99.90
18426;DHT22;9340;48.756;9.226;2022-10-23T09:18:40;15.10;99.90
18426;DHT22;9340;48.756;9.226;2022-10-23T09:21:08;15.20;99.90
18426;DHT22;9340;48.756;9.226;2022-10-23T09:23:35;15.30;99.90
18426;DHT22;9340;48.756;9.226;2022-10-23T09:26:09;15.30;99.90
18426;DHT22;9340;48.756;9.226;2022-10-23T09:28:44;15.40;99.90
18426;DHT22;9340;48.756;9.226;2022-10-23T09:31:12;15.40;99.90
18426;DHT22;9340;48.756;9.226;2022-10-23T09:33:40;15.50;99.90
18426;DHT22;9340;48.756;9.226;2022-10-23T09:36:17;15.50;99.90
18426;DHT22;9340;48.756;9.226;2022-10-23T09:38:48;15.70;99.90
18426;DHT22;9340;48.756;9.226;2022-10-23T09:41:18;15.80;99.90
18426;DHT22;9340;48.756;9.226;2022-10-23T09:43:45;15.90;99.90
18426;DHT22;9340;48.756;9.226;2022-10-23T09:46:12;16.00;99.90
18426;DHT22;9340;48.756;9.226;2022-10-23T09:48:40;16.10;99.90
18426;DHT22;9340;48.756;9.226;2022-10-23T09:51:16;16.20;99.90
18426;DHT22;9340;48.756;9.226;2022-10-23T09:53:48;16.40;99.90
18426;DHT22;9340;48.756;9.226;2022-10-23T09:56:25;16.40;99.90
18426;DHT22;9340;48.756;9.226;2022-10-23T09:58:54;16.50;99.90
18426;DHT22;9340;48.756;9.226;2022-10-23T10:01:22;16.70;99.90
18426;DHT22;9340;48.756;9.226;2022-10-23T10:03:51;16.80;99.90
18426;DHT22;9340;48.756;9.226;2022-10-23T10:06:22;16.90;99.90
18426;DHT22;9340;48.756;9.226;2022-10-23T10:08:51;17.00;99.90
18426;DHT22;9340;48.756;9.226;2022-10-23T10:11:24;17.10;99.90
18426;DHT22;9340;48.756;9.226;2022-10-23T10:16:47;17.30;99.90
18426;DHT22;9340;48.756;9.226;2022-10-23T10:19:32;17.40;99.90
18426;DHT22;9340;48.756;9.226;2022-10-23T10:22:05;17.50;99.90
18426;DHT22;9340;48.756;9.226;2022-10-23T10:24:40;17.50;99.90
18426;DHT22;9340;48.756;9.226;2022-10-23T10:27:15;17.60;99.90
18426;DHT22;9340;48.756;9.226;2022-10-23T10:29:54;17.70;99.90
18426;DHT22;9340;48.756;9.226;2022-10-23T10:32:32;17.90;99.90
18426;DHT22;9340;48.756;9.226;2022-10-23T10:35:21;18.10;99.90
18426;DHT22;9340;48.756;9.226;2022-10-23T10:37:59;18.30;99.90
18426;DHT22;9340;48.756;9.226;2022-10-23T10:40:30;18.50;99.90
18426;DHT22;9340;48.756;9.226;2022-10-23T10:43:23;18.70;99.90
18426;DHT22;9340;48.756;9.226;2022-10-23T10:45:57;18.80;99.90
18426;DHT22;9340;48.756;9.226;2022-10-23T10:48:38;19.00;99.90
18426;DHT22;9340;48.756;9.226;2022-10-23T10:51:13;18.90;99.90
18426;DHT22;9340;48.756;9.226;2022-10-23T10:53:51;18.80;99.90
18426;DHT22;9340;48.756;9.226;2022-10-23T10:56:24;18.60;99.90
18426;DHT22;9340;48.756;9.226;2022-10-23T10:58:55;18.60;99.90
18426;DHT22;9340;48.756;9.226;2022-10-23T11:01:26;18.60;99.90
18426;DHT22;9340;48.756;9.226;2022-10-23T11:03:57;18.60;99.90
18426;DHT22;9340;48.756;9.226;2022-10-23T11:06:29;18.80;99.90
18426;DHT22;9340;48.756;9.226;2022-10-23T11:09:01;19.00;99.90
18426;DHT22;9340;48.756;9.226;2022-10-23T11:11:33;19.30;99.90
18426;DHT22;9340;48.756;9.226;2022-10-23T11:14:01;19.50;99.90
18426;DHT22;9340;48.756;9.226;2022-10-23T11:16:30;19.70;99.90
18426;DHT22;9340;48.756;9.226;2022-10-23T11:19:03;19.90;99.90
18426;DHT22;9340;48.756;9.226;2022-10-23T11:21:38;20.10;99.90
18426;DHT22;9340;48.756;9.226;2022-10-23T11:27:30;20.40;99.90
18426;DHT22;9340;48.756;9.226;2022-10-23T11:30:12;20.50;99.90
18426;DHT22;9340;48.756;9.226;2022-10-23T11:36:05;20.40;99.90
18426;DHT22;9340;48.756;9.226;2022-10-23T11:38:34;20.20;99.90
18426;DHT22;9340;48.756;9.226;2022-10-23T11:41:04;19.90;99.90
18426;DHT22;9340;48.756;9.226;2022-10-23T11:43:33;19.70;99.90
18426;DHT22;9340;48.756;9.226;2022-10-23T11:46:11;19.70;99.90
18426;DHT22;9340;48.756;9.226;2022-10-23T11:48:39;19.70;99.90
18426;DHT22;9340;48.756;9.226;2022-10-23T11:51:25;19.80;99.90
18426;DHT22;9340;48.756;9.226;2022-10-23T11:54:05;19.90;99.90
18426;DHT22;9340;48.756;9.226;2022-10-23T11:56:31;20.10;99.90
18426;DHT22;9340;48.756;9.226;2022-10-23T11:59:18;20.30;99.90
18426;DHT22;9340;48.756;9.226;2022-10-23T12:01:48;20.40;99.90
18426;DHT22;9340;48.756;9.226;2022-10-23T12:04:21;20.50;99.90
18426;DHT22;9340;48.756;9.226;2022-10-23T12:06:50;20.60;99.90
18426;DHT22;9340;48.756;9.226;2022-10-23T12:09:26;20.70;99.90
18426;DHT22;9340;48.756;9.226;2022-10-23T12:12:03;20.80;99.90
18426;DHT22;9340;48.756;9.226;2022-10-23T12:14:32;20.90;99.90
18426;DHT22;9340;48.756;9.226;2022-10-23T12:17:00;21.00;99.90
18426;DHT22;9340;48.756;9.226;2022-10-23T12:19:46;21.00;99.90
18426;DHT22;9340;48.756;9.226;2022-10-23T12:22:13;21.10;99.90
18426;DHT22;9340;48.756;9.226;2022-10-23T12:24:58;21.20;99.90
18426;DHT22;9340;48.756;9.226;2022-10-23T12:27:31;21.30;99.90
18426;DHT22;9340;48.756;9.226;2022-10-23T12:30:10;21.20;99.90
18426;DHT22;9340;48.756;9.226;2022-10-23T12:33:01;21.00;99.90
18426;DHT22;9340;48.756;9.226;2022-10-23T12:35:48;21.00;99.90
18426;DHT22;9340;48.756;9.226;2022-10-23T12:38:22;21.10;99.90
18426;DHT22;9340;48.756;9.226;2022-10-23T12:40:52;21.20;99.90
18426;DHT22;9340;48.756;9.226;2022-10-23T12:43:24;21.20;99.90
18426;DHT22;9340;48.756;9.226;2022-10-23T12:45:51;21.30;99.90
18426;DHT22;9340;48.756;9.226;2022-10-23T12:48:22;21.30;99.90
18426;DHT22;9340;48.756;9.226;2022-10-23T12:50:50;21.20;99.90
18426;DHT22;9340;48.756;9.226;2022-10-23T12:53:18;21.10;99.90
18426;DHT22;9340;48.756;9.226;2022-10-23T12:55:47;21.30;99.90
18426;DHT22;9340;48.756;9.226;2022-10-23T12:58:20;21.40;99.90
18426;DHT22;9340;48.756;9.226;2022-10-23T13:00:52;21.50;99.90
18426;DHT22;9340;48.756;9.226;2022-10-23T13:03:20;21.70;99.90
18426;DHT22;9340;48.756;9.226;2022-10-23T13:05:49;21.90;99.90
18426;DHT22;9340;48.756;9.226;2022-10-23T13:08:17;21.90;99.90
18426;DHT22;9340;48.756;9.226;2022-10-23T13:10:45;21.90;99.90
18426;DHT22;9340;48.756;9.226;2022-10-23T13:13:13;21.80;99.90
18426;DHT22;9340;48.756;9.226;2022-10-23T13:15:44;21.80;99.90
18426;DHT22;9340;48.756;9.226;2022-10-23T13:18:12;21.60;99.90
18426;DHT22;9340;48.756;9.226;2022-10-23T13:20:41;21.50;99.90
18426;DHT22;9340;48.756;9.226;2022-10-23T13:23:14;21.40;99.90
18426;DHT22;9340;48.756;9.226;2022-10-23T13:25:42;21.10;99.90
18426;DHT22;9340;48.756;9.226;2022-10-23T13:28:23;21.00;99.90
18426;DHT22;9340;48.756;9.226;2022-10-23T13:31:03;20.80;99.90
18426;DHT22;9340;48.756;9.226;2022-10-23T13:33:33;20.60;99.90
18426;DHT22;9340;48.756;9.226;2022-10-23T13:36:02;20.50;99.90
18426;DHT22;9340;48.756;9.226;2022-10-23T13:38:31;20.30;99.90
18426;DHT22;9340;48.756;9.226;2022-10-23T13:41:00;20.20;99.90
18426;DHT22;9340;48.756;9.226;2022-10-23T13:43:27;20.10;99.90
18426;DHT22;9340;48.756;9.226;2022-10-23T13:45:55;20.10;99.90
18426;DHT22;9340;48.756;9.226;2022-10-23T13:48:24;20.10;99.90
18426;DHT22;9340;48.756;9.226;2022-10-23T13:50:50;20.20;99.90
18426;DHT22;9340;48.756;9.226;2022-10-23T13:53:17;20.20;99.90
18426;DHT22;9340;48.756;9.226;2022-10-23T13:55:45;20.30;99.90
18426;DHT22;9340;48.756;9.226;2022-10-23T13:58:13;20.30;99.90
18426;DHT22;9340;48.756;9.226;2022-10-23T14:00:40;20.30;99.90
18426;DHT22;9340;48.756;9.226;2022-10-23T14:03:08;20.30;99.90
18426;DHT22;9340;48.756;9.226;2022-10-23T14:05:36;20.30;99.90
18426;DHT22;9340;48.756;9.226;2022-10-23T14:08:03;20.30;99.90
18426;DHT22;9340;48.756;9.226;2022-10-23T14:10:30;20.30;99.90
18426;DHT22;9340;48.756;9.226;2022-10-23T14:12:57;20.30;99.90
18426;DHT22;9340;48.756;9.226;2022-10-23T14:15:23;20.30;99.90
18426;DHT22;9340;48.756;9.226;2022-10-23T14:17:50;20.10;99.90
18426;DHT22;9340;48.756;9.226;2022-10-23T14:20:17;20.10;99.90
18426;DHT22;9340;48.756;9.226;2022-10-23T14:22:45;20.00;99.90
18426;DHT22;9340;48.756;9.226;2022-10-23T14:25:11;19.80;99.90
18426;DHT22;9340;48.756;9.226;2022-10-23T14:27:38;19.80;99.90
18426;DHT22;9340;48.756;9.226;2022-10-23T14:30:06;19.80;99.90
18426;DHT22;9340;48.756;9.226;2022-10-23T14:32:33;19.70;99.90
18426;DHT22;9340;48.756;9.226;2022-10-23T14:35:00;19.60;99.90
18426;DHT22;9340;48.756;9.226;2022-10-23T14:37:28;19.50;99.90
18426;DHT22;9340;48.756;9.226;2022-10-23T14:39:56;19.50;99.90
18426;DHT22;9340;48.756;9.226;2022-10-23T14:42:23;19.50;99.90
18426;DHT22;9340;48.756;9.226;2022-10-23T14:44:50;19.50;99.90
18426;DHT22;9340;48.756;9.226;2022-10-23T14:47:18;19.40;99.90
18426;DHT22;9340;48.756;9.226;2022-10-23T14:49:48;19.40;99.90
18426;DHT22;9340;48.756;9.226;2022-10-23T14:52:17;19.50;99.90
18426;DHT22;9340;48.756;9.226;2022-10-23T14:54:43;19.40;99.90
18426;DHT22;9340;48.756;9.226;2022-10-23T14:57:12;19.40;99.90
18426;DHT22;9340;48.756;9.226;2022-10-23T14:59:41;19.30;99.90
18426;DHT22;9340;48.756;9.226;2022-10-23T15:02:09;19.30;99.90
18426;DHT22;9340;48.756;9.226;2022-10-23T15:04:36;19.30;99.90
18426;DHT22;9340;48.756;9.226;2022-10-23T15:07:02;19.20;99.90
18426;DHT22;9340;48.756;9.226;2022-10-23T15:09:29;19.20;99.90
18426;DHT22;9340;48.756;9.226;2022-10-23T15:11:59;19.20;99.90
18426;DHT22;9340;48.756;9.226;2022-10-23T15:14:27;19.20;99.90
18426;DHT22;9340;48.756;9.226;2022-10-23T15:16:53;19.10;99.90
18426;DHT22;9340;48.756;9.226;2022-10-23T15:19:20;19.10;99.90
18426;DHT22;9340;48.756;9.226;2022-10-23T15:21:47;19.10;99.90
18426;DHT22;9340;48.756;9.226;2022-10-23T15:24:14;19.10;99.90
18426;DHT22;9340;48.756;9.226;2022-10-23T15:26:41;19.10;99.90
18426;DHT22;9340;48.756;9.226;2022-10-23T15:29:09;19.00;99.90
18426;DHT22;9340;48.756;9.226;2022-10-23T15:31:46;19.00;99.90
18426;DHT22;9340;48.756;9.226;2022-10-23T15:34:16;19.00;99.90
18426;DHT22;9340;48.756;9.226;2022-10-23T15:36:43;19.00;99.90
18426;DHT22;9340;48.756;9.226;2022-10-23T15:39:12;18.90;99.90
18426;DHT22;9340;48.756;9.226;2022-10-23T15:41:41;18.80;99.90
18426;DHT22;9340;48.756;9.226;2022-10-23T15:44:11;18.80;99.90
18426;DHT22;9340;48.756;9.226;2022-10-23T15:46:37;18.70;99.90
18426;DHT22;9340;48.756;9.226;2022-10-23T15:49:06;18.70;99.90
18426;DHT22;9340;48.756;9.226;2022-10-23T15:51:33;18.60;99.90
18426;DHT22;9340;48.756;9.226;2022-10-23T15:54:01;18.60;99.90
18426;DHT22;9340;48.756;9.226;2022-10-23T15:56:28;18.50;99.90
18426;DHT22;9340;48.756;9.226;2022-10-23T15:58:55;18.40;99.90
18426;DHT22;9340;48.756;9.226;2022-10-23T16:01:22;18.30;99.90
18426;DHT22;9340;48.756;9.226;2022-10-23T16:03:48;18.20;99.90
18426;DHT22;9340;48.756;9.226;2022-10-23T16:06:20;18.10;99.90
18426;DHT22;9340;48.756;9.226;2022-10-23T16:08:47;18.10;99.90
18426;DHT22;9340;48.756;9.226;2022-10-23T16:11:15;18.10;99.90
18426;DHT22;9340;48.756;9.226;2022-10-23T16:13:42;18.00;99.90
18426;DHT22;9340;48.756;9.226;2022-10-23T16:16:09;18.00;99.90